Time;durP1;ratioP1;P1;durP2;ratioP2;P2;SDS_P1;SDS_P2;PMS_P1;PMS_P2;Temp;Humidity;BMP_temperature;BMP_pressure;BME280_temperature;BME280_humidity;BME280_pressure;Samples;Min_cycle;Max_cycle;Signal;HPM_P1;HPM_P2
2022/03/26 00:02:17;;;;;;;78.03;28.15;;;;;;;;;;5071594;28;20119;-77
2022/03/26 00:04:43;;;;;;;90.20;29.73;;;;;;;;;;5071450;28;20046;-78
2022/03/26 00:07:09;;;;;;;93.90;31.63;;;;;;;;;;5054541;28;20090;-78
2022/03/26 00:09:35;;;;;;;86.72;29.83;;;;;;;;;;5071402;28;20043;-77
2022/03/26 00:12:02;;;;;;;91.30;30.48;;;;;;;;;;5054598;28;20406;-77
2022/03/26 00:14:28;;;;;;;92.88;31.13;;;;;;;;;;5054403;28;20076;-77
2022/03/26 00:16:54;;;;;;;109.35;34.53;;;;;;;;;;5054164;28;20091;-78
2022/03/26 00:19:20;;;;;;;113.97;36.25;;;;;;;;;;5054111;28;20044;-78
2022/03/26 00:21:47;;;;;;;114.50;38.00;;;;;;;;;;5054535;28;20090;-78
2022/03/26 00:24:14;;;;;;;105.97;35.92;;;;;;;;;;5070822;28;20400;-78
2022/03/26 00:26:40;;;;;;;104.38;33.85;;;;;;;;;;5071299;28;20067;-78
2022/03/26 00:29:08;;;;;;;123.45;39.08;;;;;;;;;;5070804;28;20042;-78
2022/03/26 00:31:34;;;;;;;130.15;38.55;;;;;;;;;;5070744;28;20072;-78
2022/03/26 00:34:00;;;;;;;117.57;38.10;;;;;;;;;;5054421;28;20484;-78
2022/03/26 00:36:26;;;;;;;133.00;42.22;;;;;;;;;;5070527;28;20072;-77
2022/03/26 00:38:52;;;;;;;118.53;39.10;;;;;;;;;;5070939;28;20066;-78
2022/03/26 00:41:18;;;;;;;124.60;40.38;;;;;;;;;;5051126;28;20029;-78
2022/03/26 00:43:44;;;;;;;114.53;41.28;;;;;;;;;;5053747;28;20435;-77
2022/03/26 00:46:11;;;;;;;131.48;42.25;;;;;;;;;;5054281;28;20439;-78
2022/03/26 00:48:37;;;;;;;126.60;40.58;;;;;;;;;;5054179;28;20041;-78
2022/03/26 00:51:04;;;;;;;130.13;41.22;;;;;;;;;;5070862;28;20373;-78
2022/03/26 00:53:30;;;;;;;132.00;42.03;;;;;;;;;;5071081;28;20098;-78
2022/03/26 00:55:56;;;;;;;127.47;42.28;;;;;;;;;;5070713;28;20059;-78
2022/03/26 00:58:22;;;;;;;127.63;40.42;;;;;;;;;;5054189;28;20501;-78
2022/03/26 01:00:48;;;;;;;135.73;42.55;;;;;;;;;;5054152;28;20037;-78
2022/03/26 01:03:16;;;;;;;136.38;43.97;;;;;;;;;;5053801;28;20036;-78
2022/03/26 01:05:43;;;;;;;133.27;43.83;;;;;;;;;;5053929;28;20524;-77
2022/03/26 01:08:09;;;;;;;140.32;43.30;;;;;;;;;;5070474;28;20039;-77
2022/03/26 01:10:35;;;;;;;140.68;43.78;;;;;;;;;;5070536;28;20394;-77
2022/03/26 01:13:02;;;;;;;144.30;44.42;;;;;;;;;;5053883;28;20044;-77
2022/03/26 01:15:28;;;;;;;134.77;46.13;;;;;;;;;;5054131;28;20314;-77
2022/03/26 01:17:54;;;;;;;154.20;45.85;;;;;;;;;;5053762;28;20060;-77
2022/03/26 01:20:20;;;;;;;129.57;40.55;;;;;;;;;;5070309;28;20523;-78
2022/03/26 01:22:46;;;;;;;138.27;43.38;;;;;;;;;;5053623;28;20036;-78
2022/03/26 01:25:13;;;;;;;88.63;32.50;;;;;;;;;;5070287;28;20086;-77
2022/03/26 01:27:39;;;;;;;81.82;28.63;;;;;;;;;;5070617;28;20169;-78
2022/03/26 01:30:05;;;;;;;93.55;32.33;;;;;;;;;;5070252;28;20128;-78
2022/03/26 01:32:31;;;;;;;91.63;34.33;;;;;;;;;;5053822;28;20602;-78
2022/03/26 01:34:57;;;;;;;120.25;37.58;;;;;;;;;;5053988;28;20127;-78
2022/03/26 01:37:24;;;;;;;91.95;32.75;;;;;;;;;;5070473;28;20044;-77
2022/03/26 01:39:50;;;;;;;91.47;30.60;;;;;;;;;;5053452;28;20041;-78
2022/03/26 01:42:16;;;;;;;100.55;32.90;;;;;;;;;;5070052;28;20051;-78
2022/03/26 01:44:42;;;;;;;103.30;35.17;;;;;;;;;;5070387;28;20423;-77
2022/03/26 01:47:08;;;;;;;100.35;34.78;;;;;;;;;;5053452;28;20048;-77
2022/03/26 01:49:34;;;;;;;109.47;35.35;;;;;;;;;;5070404;28;20044;-78
2022/03/26 01:52:01;;;;;;;100.05;33.05;;;;;;;;;;5070150;28;20072;-77
2022/03/26 01:54:28;;;;;;;103.25;32.90;;;;;;;;;;5070073;28;20045;-78
2022/03/26 01:56:55;;;;;;;91.93;31.77;;;;;;;;;;5070314;28;20127;-78
2022/03/26 01:59:21;;;;;;;104.43;36.58;;;;;;;;;;5069970;28;20098;-78
2022/03/26 02:01:47;;;;;;;101.68;33.85;;;;;;;;;;5053198;28;20459;-78
2022/03/26 02:04:13;;;;;;;95.47;34.22;;;;;;;;;;5070088;28;20044;-78
2022/03/26 02:06:40;;;;;;;94.38;31.02;;;;;;;;;;5069968;28;20123;-77
2022/03/26 02:09:10;;;;;;;114.95;37.38;;;;;;;;;;5070157;28;20040;-78
2022/03/26 02:11:38;;;;;;;113.70;36.40;;;;;;;;;;5072588;28;20101;-78
2022/03/26 02:14:07;;;;;;;110.75;34.28;;;;;;;;;;5073849;28;20459;-78
2022/03/26 02:16:33;;;;;;;114.47;36.22;;;;;;;;;;5073821;28;20045;-78
2022/03/26 02:18:59;;;;;;;107.43;35.92;;;;;;;;;;5057214;28;20048;-78
2022/03/26 02:21:25;;;;;;;112.78;35.33;;;;;;;;;;5073503;28;20041;-77
2022/03/26 02:23:52;;;;;;;113.47;37.05;;;;;;;;;;5057050;28;20398;-77
2022/03/26 02:26:27;;;;;;;97.63;34.55;;;;;;;;;;5057307;28;20064;-77
2022/03/26 02:28:54;;;;;;;106.00;36.63;;;;;;;;;;5073649;28;20085;-77
2022/03/26 02:31:20;;;;;;;109.55;36.40;;;;;;;;;;5056820;28;20055;-77
2022/03/26 02:33:47;;;;;;;100.55;33.72;;;;;;;;;;5056726;28;20407;-77
2022/03/26 02:36:13;;;;;;;114.28;35.13;;;;;;;;;;5056826;28;20442;-77
2022/03/26 02:38:39;;;;;;;101.25;35.42;;;;;;;;;;5056923;28;20044;-77
2022/03/26 02:41:06;;;;;;;107.20;34.97;;;;;;;;;;5056423;28;20044;-77
2022/03/26 02:43:32;;;;;;;102.57;33.30;;;;;;;;;;5056471;28;20032;-77
2022/03/26 02:45:58;;;;;;;107.65;33.00;;;;;;;;;;5056727;28;20510;-77
2022/03/26 02:48:24;;;;;;;114.13;35.92;;;;;;;;;;5056495;28;20124;-77
2022/03/26 02:50:50;;;;;;;110.47;34.38;;;;;;;;;;5056488;28;20041;-77
2022/03/26 02:53:16;;;;;;;127.63;39.30;;;;;;;;;;5073167;28;20394;-78
2022/03/26 02:55:43;;;;;;;119.35;36.83;;;;;;;;;;5073093;28;20043;-78
2022/03/26 02:58:09;;;;;;;98.38;36.25;;;;;;;;;;5056223;28;20059;-78
2022/03/26 03:00:36;;;;;;;116.60;38.30;;;;;;;;;;5073002;28;20127;-78
2022/03/26 03:03:02;;;;;;;111.43;36.60;;;;;;;;;;5056444;28;20039;-78
2022/03/26 03:05:28;;;;;;;103.43;35.08;;;;;;;;;;5072946;28;20395;-78
2022/03/26 03:07:54;;;;;;;113.57;37.60;;;;;;;;;;5056512;28;20045;-77
2022/03/26 03:10:20;;;;;;;123.15;42.22;;;;;;;;;;5072762;28;20036;-77
2022/03/26 03:12:47;;;;;;;115.43;37.47;;;;;;;;;;5056395;28;20054;-77
2022/03/26 03:15:16;;;;;;;127.55;39.03;;;;;;;;;;5072797;28;20072;-77
2022/03/26 03:17:42;;;;;;;113.57;37.35;;;;;;;;;;5055898;28;20084;-77
2022/03/26 03:20:09;;;;;;;116.00;40.03;;;;;;;;;;5072404;28;20041;-77
2022/03/26 03:22:36;;;;;;;132.43;39.63;;;;;;;;;;5054554;28;20488;-77
2022/03/26 03:25:03;;;;;;;111.43;34.35;;;;;;;;;;5055843;28;20033;-77
2022/03/26 03:27:29;;;;;;;105.28;31.38;;;;;;;;;;5055766;28;20448;-77
2022/03/26 03:29:55;;;;;;;89.35;30.85;;;;;;;;;;5072506;28;20045;-77
2022/03/26 03:32:21;;;;;;;108.82;31.52;;;;;;;;;;5072480;28;20047;-77
2022/03/26 03:34:47;;;;;;;90.93;31.65;;;;;;;;;;5055906;28;20440;-77
2022/03/26 03:37:13;;;;;;;85.60;27.88;;;;;;;;;;5055794;28;20063;-77
2022/03/26 03:39:38;;;;;;;103.85;29.38;;;;;;;;;;5055656;28;20036;-77
2022/03/26 03:42:05;;;;;;;89.30;29.30;;;;;;;;;;5072562;28;20032;-77
2022/03/26 03:44:31;;;;;;;89.95;29.65;;;;;;;;;;5072196;28;20122;-77
2022/03/26 03:46:57;;;;;;;97.00;29.48;;;;;;;;;;5055486;28;20472;-77
2022/03/26 03:49:26;;;;;;;100.82;30.95;;;;;;;;;;5055386;28;20062;-77
2022/03/26 03:51:52;;;;;;;105.47;31.15;;;;;;;;;;5072254;28;20485;-77
2022/03/26 03:54:18;;;;;;;86.15;31.27;;;;;;;;;;5055336;28;20048;-78
2022/03/26 03:56:44;;;;;;;90.40;30.67;;;;;;;;;;5071948;28;20047;-77
2022/03/26 03:59:11;;;;;;;92.32;30.98;;;;;;;;;;5055275;28;20122;-77
2022/03/26 04:01:37;;;;;;;95.75;30.05;;;;;;;;;;5071767;28;20128;-77
2022/03/26 04:04:03;;;;;;;96.93;34.67;;;;;;;;;;5055188;28;20033;-77
2022/03/26 04:06:30;;;;;;;93.70;29.80;;;;;;;;;;5071683;28;20106;-77
2022/03/26 04:08:56;;;;;;;92.40;30.70;;;;;;;;;;5055006;28;20443;-77
2022/03/26 04:11:21;;;;;;;106.18;35.45;;;;;;;;;;5054972;28;20051;-78
2022/03/26 04:13:50;;;;;;;107.93;32.85;;;;;;;;;;5054781;28;20072;-77
2022/03/26 04:16:16;;;;;;;78.45;28.17;;;;;;;;;;5071289;28;20420;-78
2022/03/26 04:18:42;;;;;;;76.80;25.67;;;;;;;;;;5054919;28;20500;-77
2022/03/26 04:21:08;;;;;;;74.70;26.10;;;;;;;;;;5054686;28;20048;-78
2022/03/26 04:23:34;;;;;;;87.93;28.60;;;;;;;;;;5071384;28;20036;-77
2022/03/26 04:26:01;;;;;;;81.75;26.23;;;;;;;;;;5054737;28;20461;-77
2022/03/26 04:28:28;;;;;;;95.25;31.00;;;;;;;;;;5054577;28;20037;-77
2022/03/26 04:30:54;;;;;;;89.90;28.90;;;;;;;;;;5071255;28;20040;-78
2022/03/26 04:33:20;;;;;;;100.45;32.65;;;;;;;;;;5054340;28;20059;-78
2022/03/26 04:35:46;;;;;;;91.78;31.08;;;;;;;;;;5071287;28;20051;-78
2022/03/26 04:38:12;;;;;;;90.45;29.33;;;;;;;;;;5052308;28;20036;-77
2022/03/26 04:40:38;;;;;;;105.05;34.10;;;;;;;;;;5054048;28;20131;-77
2022/03/26 04:43:04;;;;;;;118.18;35.92;;;;;;;;;;5070859;28;20036;-77
2022/03/26 04:45:32;;;;;;;110.68;36.33;;;;;;;;;;5054129;28;20468;-78
2022/03/26 04:47:59;;;;;;;121.82;40.88;;;;;;;;;;5054168;28;20547;-76
2022/03/26 04:50:25;;;;;;;114.78;38.45;;;;;;;;;;5054186;28;20119;-77
2022/03/26 04:52:51;;;;;;;116.20;37.42;;;;;;;;;;5054035;28;20127;-77
2022/03/26 04:55:18;;;;;;;117.13;35.45;;;;;;;;;;5054470;28;20159;-77
2022/03/26 04:57:45;;;;;;;120.50;40.42;;;;;;;;;;5070868;28;20040;-77
2022/03/26 05:00:12;;;;;;;150.50;45.75;;;;;;;;;;5070602;28;20083;-77
2022/03/26 05:02:39;;;;;;;154.43;47.42;;;;;;;;;;5070983;28;20052;-77
2022/03/26 05:05:05;;;;;;;173.68;48.92;;;;;;;;;;5053978;28;20055;-77
2022/03/26 05:07:46;;;;;;;144.48;46.95;;;;;;;;;;5054144;28;20036;-77
2022/03/26 05:10:13;;;;;;;150.13;44.33;;;;;;;;;;5070793;28;20094;-77
2022/03/26 05:12:38;;;;;;;129.20;42.85;;;;;;;;;;5070722;28;20051;-78
2022/03/26 05:15:05;;;;;;;131.93;42.55;;;;;;;;;;5053876;28;20036;-78
2022/03/26 05:17:31;;;;;;;123.90;38.17;;;;;;;;;;5053537;28;20451;-78
2022/03/26 05:19:57;;;;;;;115.15;37.42;;;;;;;;;;5053688;28;20048;-77
2022/03/26 05:22:23;;;;;;;112.95;36.78;;;;;;;;;;5070748;28;20481;-77
2022/03/26 05:24:49;;;;;;;107.85;36.13;;;;;;;;;;5053661;28;20397;-77
2022/03/26 05:27:15;;;;;;;124.47;38.42;;;;;;;;;;5054032;28;20488;-77
2022/03/26 05:29:41;;;;;;;122.82;40.25;;;;;;;;;;5070533;28;20071;-77
2022/03/26 05:32:07;;;;;;;130.82;45.35;;;;;;;;;;5053817;28;20044;-77
2022/03/26 05:34:33;;;;;;;132.00;43.38;;;;;;;;;;5053791;28;20039;-77
2022/03/26 05:36:59;;;;;;;163.38;50.15;;;;;;;;;;5053496;28;20033;-77
2022/03/26 05:39:25;;;;;;;163.55;48.90;;;;;;;;;;5070225;28;20123;-77
2022/03/26 05:41:51;;;;;;;158.80;46.72;;;;;;;;;;5069886;28;20040;-77
2022/03/26 05:44:17;;;;;;;135.95;40.22;;;;;;;;;;5070089;28;20037;-78
2022/03/26 05:46:43;;;;;;;137.13;43.45;;;;;;;;;;5053034;28;20051;-78
2022/03/26 05:49:09;;;;;;;160.63;50.35;;;;;;;;;;5053275;28;20036;-77
2022/03/26 05:51:36;;;;;;;146.02;46.75;;;;;;;;;;5069951;28;20072;-77
2022/03/26 05:54:02;;;;;;;138.48;43.13;;;;;;;;;;5053347;28;20037;-77
2022/03/26 05:56:28;;;;;;;132.50;41.85;;;;;;;;;;5053355;28;20040;-77
2022/03/26 05:58:54;;;;;;;149.07;49.13;;;;;;;;;;5070053;28;20084;-77
2022/03/26 06:01:21;;;;;;;149.68;46.35;;;;;;;;;;5053183;28;20078;-77
2022/03/26 06:03:47;;;;;;;132.35;43.58;;;;;;;;;;5053304;28;20075;-77
2022/03/26 06:06:13;;;;;;;157.00;47.55;;;;;;;;;;5069897;28;20076;-77
2022/03/26 06:08:39;;;;;;;148.30;43.72;;;;;;;;;;5053119;28;20515;-77
2022/03/26 06:11:05;;;;;;;144.02;44.03;;;;;;;;;;5053085;28;20041;-77
2022/03/26 06:13:31;;;;;;;137.38;41.08;;;;;;;;;;5069839;28;20037;-77
2022/03/26 06:15:57;;;;;;;141.18;43.58;;;;;;;;;;5053222;28;20048;-77
2022/03/26 06:18:23;;;;;;;147.82;45.92;;;;;;;;;;5053368;28;20044;-78
2022/03/26 06:20:49;;;;;;;146.93;45.47;;;;;;;;;;5053135;28;20082;-78
2022/03/26 06:23:15;;;;;;;158.52;47.47;;;;;;;;;;5069760;28;20480;-78
2022/03/26 06:25:41;;;;;;;158.25;47.50;;;;;;;;;;5053362;28;20044;-78
2022/03/26 06:28:07;;;;;;;135.88;44.50;;;;;;;;;;5053354;28;20048;-77
2022/03/26 06:30:33;;;;;;;155.05;45.83;;;;;;;;;;5070230;28;20392;-78
2022/03/26 06:32:59;;;;;;;154.65;49.30;;;;;;;;;;5053197;28;20037;-77
2022/03/26 06:35:25;;;;;;;143.65;47.90;;;;;;;;;;5053234;28;20041;-77
2022/03/26 06:37:51;;;;;;;160.23;48.72;;;;;;;;;;5052891;28;20040;-77
2022/03/26 06:40:17;;;;;;;168.88;49.40;;;;;;;;;;5069522;28;20036;-77
2022/03/26 06:42:43;;;;;;;160.45;51.28;;;;;;;;;;5052792;28;20067;-77
2022/03/26 06:45:09;;;;;;;153.60;47.85;;;;;;;;;;5052856;28;20041;-77
2022/03/26 06:47:35;;;;;;;145.40;47.88;;;;;;;;;;5053030;28;20496;-77
2022/03/26 06:50:01;;;;;;;132.75;44.58;;;;;;;;;;5052875;28;20044;-78
2022/03/26 06:52:27;;;;;;;149.10;45.55;;;;;;;;;;5053104;28;20044;-78
2022/03/26 06:54:53;;;;;;;133.10;46.58;;;;;;;;;;5052806;28;20083;-78
2022/03/26 06:57:19;;;;;;;137.18;43.00;;;;;;;;;;5054812;28;20048;-77
2022/03/26 06:59:45;;;;;;;151.70;49.38;;;;;;;;;;5056445;28;20444;-78
2022/03/26 07:02:12;;;;;;;150.27;48.85;;;;;;;;;;5056487;28;20045;-77
2022/03/26 07:04:38;;;;;;;145.68;46.67;;;;;;;;;;5073123;28;20036;-77
2022/03/26 07:07:05;;;;;;;134.52;41.72;;;;;;;;;;5072925;28;20123;-77
2022/03/26 07:09:31;;;;;;;134.02;45.35;;;;;;;;;;5056161;28;20404;-77
2022/03/26 07:11:57;;;;;;;119.18;42.38;;;;;;;;;;5072792;28;20039;-77
2022/03/26 07:14:23;;;;;;;115.15;39.47;;;;;;;;;;5056412;28;20093;-77
2022/03/26 07:16:49;;;;;;;110.68;40.00;;;;;;;;;;5053216;28;20048;-77
2022/03/26 07:19:15;;;;;;;105.32;38.10;;;;;;;;;;5052516;28;20413;-77
2022/03/26 07:21:41;;;;;;;104.50;36.72;;;;;;;;;;5052050;28;20082;-77
2022/03/26 07:24:07;;;;;;;101.38;38.50;;;;;;;;;;5052626;28;20040;-77
2022/03/26 07:26:33;;;;;;;96.55;36.35;;;;;;;;;;5068894;28;20466;-77
2022/03/26 07:28:59;;;;;;;107.15;38.80;;;;;;;;;;5052282;28;20206;-77
2022/03/26 07:31:25;;;;;;;90.45;35.50;;;;;;;;;;5052459;28;20483;-77
2022/03/26 07:33:51;;;;;;;90.35;35.28;;;;;;;;;;5068756;28;20044;-77
2022/03/26 07:36:17;;;;;;;89.63;34.20;;;;;;;;;;5068833;28;20125;-77
2022/03/26 07:38:43;;;;;;;90.25;34.95;;;;;;;;;;5052659;28;20044;-78
2022/03/26 07:41:10;;;;;;;87.68;34.83;;;;;;;;;;5070888;28;20143;-77
2022/03/26 07:43:36;;;;;;;86.15;34.58;;;;;;;;;;5070357;28;20025;-78
2022/03/26 07:46:02;;;;;;;86.93;35.05;;;;;;;;;;5053736;28;20481;-77
2022/03/26 07:48:28;;;;;;;73.30;32.10;;;;;;;;;;5069376;28;20132;-78
2022/03/26 07:50:54;;;;;;;78.53;32.25;;;;;;;;;;5052011;28;20045;-77
2022/03/26 07:53:22;;;;;;;70.78;30.85;;;;;;;;;;5052217;28;20143;-78
2022/03/26 07:55:48;;;;;;;73.78;31.88;;;;;;;;;;5068530;28;20056;-77
2022/03/26 07:58:14;;;;;;;74.75;32.15;;;;;;;;;;5051753;28;20488;-77
2022/03/26 08:00:40;;;;;;;69.35;29.15;;;;;;;;;;5051890;28;20102;-77
2022/03/26 08:03:06;;;;;;;72.50;35.08;;;;;;;;;;5051541;28;20075;-78
2022/03/26 08:05:32;;;;;;;66.25;32.85;;;;;;;;;;5051696;28;20087;-77
2022/03/26 08:07:58;;;;;;;67.80;31.10;;;;;;;;;;5067464;28;20412;-78
2022/03/26 08:10:24;;;;;;;65.18;27.90;;;;;;;;;;5067743;28;20035;-79
2022/03/26 08:12:50;;;;;;;67.57;29.55;;;;;;;;;;5051833;28;20047;-78
2022/03/26 08:15:16;;;;;;;61.83;26.48;;;;;;;;;;5051670;28;20542;-78
2022/03/26 08:17:42;;;;;;;63.92;27.67;;;;;;;;;;5068221;28;20052;-79
2022/03/26 08:20:08;;;;;;;56.25;25.38;;;;;;;;;;5068178;28;20135;-79
2022/03/26 08:22:34;;;;;;;58.55;27.70;;;;;;;;;;5051159;28;20048;-78
2022/03/26 08:25:00;;;;;;;64.10;27.42;;;;;;;;;;5051279;28;20051;-77
2022/03/26 08:27:26;;;;;;;56.25;25.23;;;;;;;;;;5068756;28;20076;-75
2022/03/26 08:29:54;;;;;;;60.28;25.13;;;;;;;;;;5055008;28;20400;-77
2022/03/26 08:32:20;;;;;;;55.25;24.33;;;;;;;;;;5070786;28;20429;-75
2022/03/26 08:34:46;;;;;;;58.40;25.70;;;;;;;;;;5054532;28;20076;-77
2022/03/26 08:37:12;;;;;;;64.95;25.63;;;;;;;;;;5071503;28;20064;-78
2022/03/26 08:39:38;;;;;;;62.85;26.30;;;;;;;;;;5054449;28;20037;-78
2022/03/26 08:42:04;;;;;;;56.25;24.27;;;;;;;;;;5054685;28;20040;-76
2022/03/26 08:44:30;;;;;;;66.88;26.35;;;;;;;;;;5071553;28;20590;-78
2022/03/26 08:46:57;;;;;;;59.20;23.83;;;;;;;;;;5070949;28;20041;-77
2022/03/26 08:49:23;;;;;;;59.50;28.65;;;;;;;;;;5054559;28;20036;-77
2022/03/26 08:51:49;;;;;;;63.33;26.67;;;;;;;;;;5071299;28;20399;-75
2022/03/26 08:54:15;;;;;;;57.55;25.88;;;;;;;;;;5071050;28;20047;-78
2022/03/26 08:56:41;;;;;;;61.05;26.25;;;;;;;;;;5054284;28;20174;-75
2022/03/26 08:59:07;;;;;;;58.42;25.13;;;;;;;;;;5054401;28;20041;-78
2022/03/26 09:01:33;;;;;;;54.92;24.85;;;;;;;;;;5070840;28;20043;-78
2022/03/26 09:03:59;;;;;;;60.03;26.35;;;;;;;;;;5070685;28;20067;-79
2022/03/26 09:06:25;;;;;;;51.67;23.83;;;;;;;;;;5054216;28;20515;-74
2022/03/26 09:08:51;;;;;;;52.45;23.20;;;;;;;;;;5070583;28;20400;-79
2022/03/26 09:11:17;;;;;;;54.42;23.80;;;;;;;;;;5070712;28;20070;-77
2022/03/26 09:13:43;;;;;;;54.53;22.85;;;;;;;;;;5054036;28;20048;-79
2022/03/26 09:16:09;;;;;;;53.08;23.42;;;;;;;;;;5070460;28;20408;-78
2022/03/26 09:18:35;;;;;;;55.65;24.73;;;;;;;;;;5053777;28;20065;-78
2022/03/26 09:21:01;;;;;;;55.33;24.10;;;;;;;;;;5069472;28;20451;-74
2022/03/26 09:23:27;;;;;;;46.60;19.33;;;;;;;;;;5071379;28;20036;-78
2022/03/26 09:25:53;;;;;;;40.65;18.80;;;;;;;;;;5054472;28;20124;-80
2022/03/26 09:28:19;;;;;;;48.63;20.83;;;;;;;;;;5055157;28;20033;-79
2022/03/26 09:30:45;;;;;;;45.33;19.15;;;;;;;;;;5070502;28;20046;-75
2022/03/26 09:33:11;;;;;;;49.53;21.42;;;;;;;;;;5054057;28;20480;-78
2022/03/26 09:35:38;;;;;;;46.75;20.65;;;;;;;;;;5053602;28;20040;-79
2022/03/26 09:38:04;;;;;;;49.70;19.67;;;;;;;;;;5053789;28;20102;-78
2022/03/26 09:40:33;;;;;;;44.35;18.83;;;;;;;;;;5070183;28;20127;-78
2022/03/26 09:42:59;;;;;;;38.78;16.95;;;;;;;;;;5070053;28;20102;-77
2022/03/26 09:45:25;;;;;;;42.28;19.05;;;;;;;;;;5070072;28;20044;-77
2022/03/26 09:47:53;;;;;;;36.95;16.02;;;;;;;;;;5070211;28;20373;-75
2022/03/26 09:50:21;;;;;;;29.45;14.70;;;;;;;;;;5053306;28;20127;-76
2022/03/26 09:52:47;;;;;;;30.55;14.20;;;;;;;;;;5053682;28;20052;-73
2022/03/26 09:55:13;;;;;;;33.00;15.48;;;;;;;;;;5053628;28;20055;-72
2022/03/26 09:57:39;;;;;;;25.45;12.10;;;;;;;;;;5070045;28;20049;-78
2022/03/26 10:00:05;;;;;;;34.55;13.38;;;;;;;;;;5053126;28;20033;-73
2022/03/26 10:02:31;;;;;;;38.45;13.60;;;;;;;;;;5069996;28;20181;-78
2022/03/26 10:04:57;;;;;;;28.02;14.13;;;;;;;;;;5069918;28;20404;-76
2022/03/26 10:07:28;;;;;;;26.92;13.95;;;;;;;;;;5070177;28;20040;-77
2022/03/26 10:09:55;;;;;;;30.98;13.50;;;;;;;;;;5053408;28;20086;-76
2022/03/26 10:12:22;;;;;;;31.73;14.40;;;;;;;;;;5054307;28;20124;-76
2022/03/26 10:14:50;;;;;;;23.08;10.68;;;;;;;;;;5054637;28;20041;-79
2022/03/26 10:17:24;;;;;;;26.77;11.80;;;;;;;;;;5052871;28;20057;-72
2022/03/26 10:19:51;;;;;;;36.25;13.73;;;;;;;;;;5053061;28;20123;-78
2022/03/26 10:22:32;;;;;;;29.67;13.75;;;;;;;;;;5053177;28;20044;-72
2022/03/26 10:25:00;;;;;;;29.77;13.00;;;;;;;;;;5069866;28;20042;-73
2022/03/26 10:27:26;;;;;;;22.30;11.20;;;;;;;;;;5070010;28;20051;-72
2022/03/26 10:29:53;;;;;;;22.80;9.80;;;;;;;;;;5070353;28;20398;-78
2022/03/26 10:32:39;;;;;;;13.55;7.47;;;;;;;;;;5056518;28;20089;-78
2022/03/26 10:35:11;;;;;;;26.83;10.85;;;;;;;;;;5073837;28;20508;-75
2022/03/26 10:37:44;;;;;;;18.08;8.85;;;;;;;;;;5056932;28;20475;-75
2022/03/26 10:40:37;;;;;;;17.80;7.60;;;;;;;;;;5073514;28;20068;-79
2022/03/26 10:43:03;;;;;;;20.75;8.73;;;;;;;;;;5071095;28;20516;-76
2022/03/26 10:45:30;;;;;;;16.15;7.78;;;;;;;;;;5056920;28;20426;-76
2022/03/26 10:47:57;;;;;;;15.32;8.82;;;;;;;;;;5056747;28;20044;-76
2022/03/26 10:50:24;;;;;;;16.58;8.23;;;;;;;;;;5057027;28;20135;-74
2022/03/26 10:52:54;;;;;;;15.10;7.95;;;;;;;;;;5056458;28;20382;-73
2022/03/26 10:55:21;;;;;;;14.27;8.43;;;;;;;;;;5073535;28;20520;-73
2022/03/26 10:57:48;;;;;;;16.90;9.77;;;;;;;;;;5073419;28;20048;-73
2022/03/26 11:00:14;;;;;;;18.65;9.52;;;;;;;;;;5056665;28;20040;-71
2022/03/26 11:02:43;;;;;;;14.63;7.63;;;;;;;;;;5073665;28;20040;-78
2022/03/26 11:05:10;;;;;;;10.27;4.80;;;;;;;;;;5056810;28;20040;-80
2022/03/26 11:07:37;;;;;;;14.80;6.95;;;;;;;;;;5072976;28;20458;-75
2022/03/26 11:10:07;;;;;;;16.17;6.88;;;;;;;;;;5056387;28;20095;-72
2022/03/26 11:12:33;;;;;;;12.57;6.57;;;;;;;;;;5072961;28;20547;-74
2022/03/26 11:15:02;;;;;;;14.48;7.82;;;;;;;;;;5056111;28;20040;-72
2022/03/26 11:17:39;;;;;;;9.32;4.80;;;;;;;;;;5057699;28;20098;-76
2022/03/26 11:20:24;;;;;;;9.57;5.78;;;;;;;;;;5056372;28;20048;-77
2022/03/26 11:22:50;;;;;;;13.02;7.32;;;;;;;;;;5056438;28;20065;-76
2022/03/26 11:25:39;;;;;;;10.50;6.55;;;;;;;;;;5072867;28;20045;-77
2022/03/26 11:28:24;;;;;;;12.93;6.13;;;;;;;;;;5055883;28;20048;-76
2022/03/26 11:30:59;;;;;;;10.23;5.93;;;;;;;;;;5056407;28;20658;-74
2022/03/26 11:33:25;;;;;;;10.48;5.90;;;;;;;;;;5055900;28;20412;-76
2022/03/26 11:35:54;;;;;;;9.73;4.22;;;;;;;;;;5074470;28;20036;-81
2022/03/26 11:38:20;;;;;;;14.73;6.55;;;;;;;;;;5073433;28;20048;-79
2022/03/26 11:40:47;;;;;;;7.82;4.60;;;;;;;;;;5058903;28;20052;-78
2022/03/26 11:43:17;;;;;;;13.98;6.93;;;;;;;;;;5071546;28;20044;-79
2022/03/26 11:51:23;;;;;;;9.38;5.85;;;;;;;;;;5072447;28;20056;-75
2022/03/26 11:53:56;;;;;;;12.40;6.00;;;;;;;;;;5055797;28;20044;-75
2022/03/26 11:56:27;;;;;;;11.60;5.55;;;;;;;;;;5056012;28;20409;-79
2022/03/26 11:59:12;;;;;;;11.20;5.68;;;;;;;;;;5055366;28;20403;-73
2022/03/26 12:01:38;;;;;;;11.85;5.93;;;;;;;;;;5072268;28;20045;-77
2022/03/26 12:04:15;;;;;;;11.63;5.45;;;;;;;;;;5039091;28;20072;-73
2022/03/26 12:06:42;;;;;;;9.07;5.22;;;;;;;;;;5072070;28;20041;-73
2022/03/26 12:09:10;;;;;;;8.13;4.43;;;;;;;;;;5072013;28;20083;-78
2022/03/26 12:11:36;;;;;;;8.82;4.47;;;;;;;;;;5072670;28;20047;-78
2022/03/26 12:14:06;;;;;;;8.07;4.88;;;;;;;;;;5055274;28;20478;-74
2022/03/26 12:16:50;;;;;;;7.90;4.77;;;;;;;;;;5071924;28;20086;-75
2022/03/26 12:19:35;;;;;;;6.82;4.28;;;;;;;;;;5055371;28;20101;-76
2022/03/26 12:22:17;;;;;;;8.68;3.85;;;;;;;;;;5071652;28;20078;-75
2022/03/26 12:24:43;;;;;;;6.38;3.72;;;;;;;;;;5074811;28;20041;-79
2022/03/26 12:27:12;;;;;;;7.40;3.85;;;;;;;;;;5056130;28;20040;-76
2022/03/26 12:29:39;;;;;;;11.02;4.68;;;;;;;;;;5071967;28;20036;-77
2022/03/26 12:32:05;;;;;;;9.80;5.03;;;;;;;;;;5072950;28;20044;-79
2022/03/26 12:34:31;;;;;;;7.72;4.53;;;;;;;;;;5057139;28;20044;-77
2022/03/26 12:37:04;;;;;;;8.65;4.45;;;;;;;;;;5055421;28;20074;-81
2022/03/26 12:39:31;;;;;;;8.32;4.63;;;;;;;;;;5037234;28;20049;-79
2022/03/26 12:41:57;;;;;;;5.07;3.15;;;;;;;;;;5037166;28;20041;-75
2022/03/26 12:44:23;;;;;;;7.35;3.67;;;;;;;;;;5039238;28;20048;-79
2022/03/26 12:46:50;;;;;;;5.78;2.35;;;;;;;;;;5053218;28;20079;-80
2022/03/26 12:49:20;;;;;;;1.25;1.10;;;;;;;;;;5039066;28;20542;-78
2022/03/26 12:51:50;;;;;;;3.83;1.13;;;;;;;;;;5037187;28;20057;-79
2022/03/26 12:54:16;;;;;;;3.50;2.20;;;;;;;;;;5037079;28;20045;-77
2022/03/26 12:56:42;;;;;;;3.28;1.98;;;;;;;;;;5037356;28;20083;-77
2022/03/26 12:59:08;;;;;;;5.60;2.78;;;;;;;;;;5036022;28;20065;-74
2022/03/26 13:01:35;;;;;;;6.35;3.35;;;;;;;;;;5034583;28;20045;-77
2022/03/26 13:04:01;;;;;;;3.55;2.25;;;;;;;;;;5036256;28;20040;-82
2022/03/26 13:06:27;;;;;;;3.50;2.63;;;;;;;;;;5040164;28;20036;-79
2022/03/26 13:08:55;;;;;;;6.13;3.42;;;;;;;;;;5051037;28;20047;-77
2022/03/26 13:11:23;;;;;;;2.53;1.63;;;;;;;;;;5053665;28;20515;-79
2022/03/26 13:13:51;;;;;;;4.78;2.45;;;;;;;;;;5069986;28;20127;-78
2022/03/26 13:16:19;;;;;;;8.30;3.15;;;;;;;;;;5034124;28;20049;-76
2022/03/26 13:18:53;;;;;;;6.80;3.00;;;;;;;;;;5036161;28;20056;-78
2022/03/26 13:21:19;;;;;;;2.42;1.75;;;;;;;;;;5037172;28;20068;-80
2022/03/26 13:23:54;;;;;;;7.35;3.78;;;;;;;;;;5055169;28;20040;-79
2022/03/26 13:26:22;;;;;;;3.65;2.55;;;;;;;;;;5037794;28;20037;-75
2022/03/26 13:28:48;;;;;;;8.68;3.55;;;;;;;;;;5035305;28;20056;-79
2022/03/26 13:31:24;;;;;;;4.50;2.90;;;;;;;;;;5051018;28;20128;-79
2022/03/26 13:33:51;;;;;;;5.53;2.70;;;;;;;;;;5035445;28;20071;-76
2022/03/26 13:36:29;;;;;;;6.75;2.83;;;;;;;;;;5050534;28;20455;-78
2022/03/26 13:39:00;;;;;;;5.85;2.72;;;;;;;;;;5053497;28;20052;-77
2022/03/26 13:41:26;;;;;;;5.15;3.50;;;;;;;;;;5035909;28;20049;-79
2022/03/26 13:43:52;;;;;;;3.47;1.83;;;;;;;;;;5050610;28;20374;-78
2022/03/26 13:46:19;;;;;;;5.63;3.55;;;;;;;;;;5050380;28;20072;-80
2022/03/26 13:48:55;;;;;;;8.70;3.13;;;;;;;;;;5051282;28;20037;-79
2022/03/26 13:51:28;;;;;;;8.68;2.80;;;;;;;;;;5034358;28;20045;-79
2022/03/26 13:53:54;;;;;;;4.63;2.05;;;;;;;;;;5050464;28;20689;-73
2022/03/26 13:56:27;;;;;;;5.25;2.75;;;;;;;;;;5033652;28;20417;-76
2022/03/26 13:58:54;;;;;;;5.47;2.20;;;;;;;;;;5050425;28;20076;-77
2022/03/26 14:01:20;;;;;;;4.60;2.42;;;;;;;;;;5052120;28;20048;-80
2022/03/26 14:03:51;;;;;;;2.70;1.67;;;;;;;;;;5036864;28;20070;-77
2022/03/26 14:06:17;;;;;;;4.45;2.03;;;;;;;;;;5037367;28;20048;-75
2022/03/26 14:08:47;;;;;;;4.97;2.22;;;;;;;;;;5058352;28;20041;-78
2022/03/26 14:11:14;;;;;;;5.88;2.42;;;;;;;;;;5037463;28;20037;-74
2022/03/26 14:13:40;;;;;;;3.70;2.22;;;;;;;;;;5054080;28;20044;-78
2022/03/26 14:16:06;;;;;;;4.68;1.52;;;;;;;;;;5060665;28;20044;-76
2022/03/26 14:18:32;;;;;;;2.08;1.10;;;;;;;;;;5038305;28;20591;-81
2022/03/26 14:20:58;;;;;;;4.47;2.22;;;;;;;;;;5037276;28;20055;-80
2022/03/26 14:23:24;;;;;;;4.03;1.27;;;;;;;;;;5056678;28;20044;-79